Aérodrome :
LOGIN :

S'inscrire | Disclaimer

   EN    FR    IT 

 










Légende :    VFR   VFR Marginal   IFR   IFR Intensif   IFR Très Intensif
Visi : 
Plafond : 
>= 8 km
>= 3000ft
5 à 8 km
1000 à 3000 ft
1500m à 5 km
500 à 1000 ft
800 à 1500m
200 à 500 ft
< 800m
< 200 ft
Symboles :   Orages  Brouillard  Fortes neiges  Fortes précipitations  Vent > 20 kt
SIGMETs :   Divers  Orages  Givrage  Turbulence  Onde Orograph.  Cendres Volcan.






- Altitude de l'aérodrome : 370 ft


EBBE - Beauvechain AB

DERNIER METAR :
  • 030755Z VRB01KT 9999 FEW005 BKN060 14/13 Q1013 BLU BLU TEMPO WHT

METARs EXPIRÉS :
  • 030725Z VRB02KT 9999 -RA FEW005 BKN060 13/13 Q1013 BLU BLU TEMPO WHT
  • 030712Z VRB02KT 9999 -RA FEW005 BKN060 13/12 Q1013 BLU BLU TEMPO WHT
  • 030711Z VRB02KT 9999 -RA FEW005 BKN060 13/13 Q1013 BLU BLU TEMPO WHT
  • 030655Z VRB01KT 6000 -RA FEW005 BKN060 12/12 Q1013 WHT WHT TEMPO GRN
  • 030625Z VRB02KT 6000 -RA FEW009 BKN060 12/12 Q1013 WHT WHT TEMPO GRN
  • 030555Z VRB02KT 6000 -RA FEW010 BKN060 12/12 Q1013 WHT WHT TEMPO GRN
  • 030537Z 09003KT 6000 -RA FEW010 BKN060 12/12 Q1013 WHT WHT TEMPO GRN
  • 030525Z VRB02KT 4500 RA FEW010 BKN060 12/12 Q1013 GRN WHT TEMPO GRN
  • 030455Z 02003KT 3000 BKN065 12/12 Q1013 YLO

TAF AMD TAF EBBE
Valide du 03 à 07h jusqu'au 03 à 16h UTC


030615Z 0307/0316 06005KT 6000 -RA FEW010 BKN070
TEMPO 0307/0316 VRB03KT
TEMPO 0307/0310 3000 RA FEW005 BKN060
BECMG 0310/0312 9999 NSW FEW015 BKN055
TEMPO 0310/0316 6000 -SHRA SCT015TCU BKN050
PROB30
TEMPO 0310/0314 05010G25KT 3000 SHRA TSRA SCT007 BKN012CB



MET'MAP, la Météo Aéronautique d'un coup d'oeil ! - Copyright ORBIFLY Décembre 2007 - Disclaimer

ORBIFLY MET'MAP TEAM :

Programmation & Développement : Alexandra Zaïnal
Sur une idée originale de : Baudouin d'Aumeries
Assistance à la programmation : Marc-Olivier Méhu
Soutien technique & logistique : Manuel Goepfert

Contact : metmap@orbifly.com




SOURCES & CREDITS :

   NOAA